createdAt,value
2024-02-17T00:00:22.521Z,47.80
2024-02-17T00:02:50.057Z,52.03
2024-02-17T00:05:17.737Z,50.97
2024-02-17T00:07:45.326Z,65.30
2024-02-17T00:10:12.802Z,54.10
2024-02-17T00:12:40.127Z,52.22
2024-02-17T00:15:08.270Z,56.67
2024-02-17T00:17:36.049Z,53.97
2024-02-17T00:20:04.815Z,49.22
2024-02-17T00:22:32.324Z,51.95
2024-02-17T00:24:59.615Z,49.15
2024-02-17T00:27:27.061Z,48.60
2024-02-17T00:29:54.370Z,47.58
2024-02-17T00:32:21.713Z,43.60
2024-02-17T00:34:49.522Z,42.28
2024-02-17T00:37:17.263Z,44.63
2024-02-17T00:39:44.651Z,45.97
2024-02-17T00:42:11.979Z,49.17
2024-02-17T00:44:39.346Z,43.30
2024-02-17T00:47:07.505Z,40.70
2024-02-17T00:49:34.964Z,41.20
2024-02-17T00:52:02.444Z,41.33
2024-02-17T00:54:29.851Z,41.05
2024-02-17T00:56:57.129Z,44.28
2024-02-17T00:59:24.768Z,47.38
2024-02-17T01:01:52.036Z,49.00
2024-02-17T01:04:19.479Z,51.45
2024-02-17T01:06:46.842Z,55.47
2024-02-17T01:09:16.522Z,62.53
2024-02-17T01:11:43.908Z,65.72
2024-02-17T01:14:11.224Z,62.78
2024-02-17T01:16:38.876Z,67.72
2024-02-17T01:19:06.427Z,68.50
2024-02-17T01:21:34.945Z,66.07
2024-02-17T01:24:02.608Z,65.00
2024-02-17T01:26:29.971Z,70.93
2024-02-17T01:28:57.262Z,67.10
2024-02-17T01:31:24.673Z,64.97
2024-02-17T01:33:52.366Z,69.47
2024-02-17T01:36:20.697Z,69.20
2024-02-17T01:38:48.410Z,65.78
2024-02-17T01:41:15.872Z,67.60
2024-02-17T01:43:43.142Z,67.90
2024-02-17T01:49:02.730Z,66.15
2024-02-17T01:51:30.623Z,64.03
2024-02-17T01:53:58.284Z,64.45
2024-02-17T01:56:27.260Z,63.90
2024-02-17T01:58:56.244Z,64.70
2024-02-17T02:01:25.220Z,64.85
2024-02-17T02:03:52.596Z,63.10
2024-02-17T02:06:25.394Z,61.42
2024-02-17T02:08:52.904Z,59.90
2024-02-17T02:11:20.865Z,61.78
2024-02-17T02:13:48.689Z,60.50
2024-02-17T02:16:19.394Z,61.30
2024-02-17T02:18:47.508Z,60.35
2024-02-17T02:21:15.089Z,61.15
2024-02-17T02:23:46.708Z,61.08
2024-02-17T02:26:14.318Z,62.15
2024-02-17T02:28:41.665Z,60.03
2024-02-17T02:31:08.998Z,57.45
2024-02-17T02:33:36.520Z,57.38
2024-02-17T02:36:04.145Z,55.05
2024-02-17T02:38:31.526Z,54.13
2024-02-17T02:40:58.901Z,53.38
2024-02-17T02:43:27.102Z,53.53
2024-02-17T02:45:54.814Z,54.10
2024-02-17T02:48:22.577Z,54.65
2024-02-17T02:50:49.931Z,56.08
2024-02-17T02:53:17.669Z,55.80
2024-02-17T02:55:45.013Z,53.78
2024-02-17T02:58:12.736Z,53.58
2024-02-17T03:00:40.183Z,57.15
2024-02-17T03:03:07.603Z,58.60
2024-02-17T03:05:37.259Z,57.08
2024-02-17T03:08:05.959Z,58.42
2024-02-17T03:10:33.736Z,57.10
2024-02-17T03:13:01.205Z,57.67
2024-02-17T03:15:28.604Z,59.38
2024-02-17T03:17:55.913Z,58.92
2024-02-17T03:20:23.319Z,52.17
2024-02-17T03:22:50.806Z,51.00
2024-02-17T03:25:18.125Z,55.20
2024-02-17T03:27:45.554Z,54.25
2024-02-17T03:30:13.062Z,52.65
2024-02-17T03:32:40.500Z,52.10
2024-02-17T03:35:08.931Z,51.83
2024-02-17T03:37:36.331Z,56.95
2024-02-17T03:40:08.068Z,55.40
2024-02-17T03:42:36.125Z,53.28
2024-02-17T03:45:03.626Z,56.10
2024-02-17T03:47:31.109Z,60.30
2024-02-17T03:49:58.494Z,60.70
2024-02-17T03:52:25.886Z,58.72
2024-02-17T03:54:54.155Z,58.50
2024-02-17T03:57:21.629Z,59.13
2024-02-17T03:59:50.094Z,59.28
2024-02-17T04:02:17.408Z,62.33
2024-02-17T04:04:44.771Z,65.57
2024-02-17T04:07:12.259Z,64.97
2024-02-17T04:09:39.846Z,65.70
2024-02-17T04:12:07.325Z,64.60
2024-02-17T04:14:35.212Z,68.55
2024-02-17T04:17:02.526Z,71.28
2024-02-17T04:19:29.927Z,70.28
2024-02-17T04:21:57.253Z,71.97
2024-02-17T04:24:24.708Z,74.50
2024-02-17T04:26:52.223Z,75.55
2024-02-17T04:29:21.111Z,76.40
2024-02-17T04:31:48.395Z,74.65
2024-02-17T04:34:15.946Z,74.72
2024-02-17T04:36:43.566Z,77.25
2024-02-17T04:39:13.526Z,74.13
2024-02-17T04:41:41.088Z,75.15
2024-02-17T04:44:09.292Z,74.13
2024-02-17T04:46:36.556Z,70.60
2024-02-17T04:49:04.027Z,70.60
2024-02-17T04:51:32.510Z,70.63
2024-02-17T04:54:00.317Z,68.70
2024-02-17T04:56:28.702Z,69.80
2024-02-17T04:58:55.980Z,66.63
2024-02-17T05:01:24.438Z,68.47
2024-02-17T05:03:52.041Z,70.60
2024-02-17T05:06:19.613Z,70.53
2024-02-17T05:08:47.106Z,74.85
2024-02-17T05:11:14.657Z,71.63
2024-02-17T05:13:42.162Z,69.93
2024-02-17T05:16:09.566Z,67.70
2024-02-17T05:18:36.999Z,73.18
2024-02-17T05:21:05.240Z,73.82
2024-02-17T05:23:34.775Z,78.15
2024-02-17T05:26:02.084Z,77.07
2024-02-17T05:28:29.963Z,75.45
2024-02-17T05:30:57.605Z,78.38
2024-02-17T05:33:25.208Z,76.10
2024-02-17T05:35:52.957Z,76.35
2024-02-17T05:38:20.454Z,76.93
2024-02-17T05:40:47.796Z,82.20
2024-02-17T05:43:15.025Z,74.85
2024-02-17T05:45:42.333Z,77.00
2024-02-17T05:48:09.766Z,74.68
2024-02-17T05:50:38.078Z,74.28
2024-02-17T05:53:05.378Z,73.07
2024-02-17T05:55:32.677Z,69.85
2024-02-17T05:58:00.405Z,70.20
2024-02-17T06:00:27.726Z,71.45
2024-02-17T06:02:55.121Z,70.72
2024-02-17T06:05:22.436Z,75.40
2024-02-17T06:07:50.261Z,70.63
2024-02-17T06:10:17.633Z,72.93
2024-02-17T06:12:44.963Z,68.78
2024-02-17T06:15:12.351Z,70.38
2024-02-17T06:17:44.175Z,67.13
2024-02-17T06:20:30.938Z,68.70
2024-02-17T06:22:58.828Z,70.55
2024-02-17T06:25:26.183Z,69.80
2024-02-17T06:27:53.618Z,69.72
2024-02-17T06:30:21.042Z,73.28
2024-02-17T06:32:48.426Z,73.47
2024-02-17T06:35:15.939Z,70.00
2024-02-17T06:37:43.247Z,68.20
2024-02-17T06:40:10.931Z,64.95
2024-02-17T06:42:38.268Z,65.85
2024-02-17T06:45:05.874Z,68.20
2024-02-17T06:47:33.108Z,66.78
2024-02-17T06:50:00.577Z,66.55
2024-02-17T06:52:28.072Z,67.72
2024-02-17T06:54:55.391Z,71.72
2024-02-17T06:57:22.717Z,71.32
2024-02-17T06:59:49.973Z,72.30
2024-02-17T07:02:17.609Z,78.38
2024-02-17T07:04:44.970Z,74.22
2024-02-17T07:07:12.288Z,82.47
2024-02-17T07:09:40.653Z,65.32
2024-02-17T07:12:08.253Z,71.80
2024-02-17T07:14:36.119Z,70.90
2024-02-17T07:17:04.952Z,67.25
2024-02-17T07:19:32.683Z,70.15
2024-02-17T07:22:00.236Z,63.92
2024-02-17T07:24:28.872Z,64.90
2024-02-17T07:26:56.189Z,63.47
2024-02-17T07:29:23.408Z,65.07
2024-02-17T07:31:50.713Z,64.45
2024-02-17T07:34:18.090Z,64.82
2024-02-17T07:36:47.954Z,64.18
2024-02-17T07:39:15.457Z,81.10
2024-02-17T07:41:42.725Z,70.78
2024-02-17T07:44:10.662Z,76.07
2024-02-17T07:46:37.981Z,73.00
2024-02-17T07:49:05.439Z,72.40
2024-02-17T07:51:33.225Z,72.05
2024-02-17T07:54:01.905Z,77.35
2024-02-17T07:56:29.617Z,74.00
2024-02-17T07:58:57.538Z,72.57
2024-02-17T08:01:24.969Z,75.28
2024-02-17T08:03:52.473Z,75.75
2024-02-17T08:06:21.017Z,74.60
2024-02-17T08:08:50.091Z,75.30
2024-02-17T08:11:17.811Z,74.88
2024-02-17T08:13:45.149Z,74.57
2024-02-17T08:16:12.668Z,73.35
2024-02-17T08:18:43.442Z,74.68
2024-02-17T08:21:11.551Z,73.70
2024-02-17T08:23:38.877Z,71.68
2024-02-17T08:26:08.684Z,71.80
2024-02-17T08:28:36.286Z,72.32
2024-02-17T08:31:04.054Z,71.13
2024-02-17T08:33:31.474Z,69.93
2024-02-17T08:35:58.845Z,70.10
2024-02-17T08:38:26.333Z,67.32
2024-02-17T08:40:53.656Z,69.63
2024-02-17T08:43:20.937Z,70.38
2024-02-17T08:45:48.277Z,68.25
2024-02-17T08:48:16.271Z,69.82
2024-02-17T08:50:43.711Z,67.47
2024-02-17T08:53:11.035Z,65.38
2024-02-17T08:55:38.519Z,65.03
2024-02-17T08:58:06.873Z,65.35
2024-02-17T09:00:37.330Z,67.30
2024-02-17T09:03:04.627Z,67.72
2024-02-17T09:05:31.961Z,66.90
2024-02-17T09:07:59.383Z,66.07
2024-02-17T09:10:27.663Z,62.83
2024-02-17T09:12:55.053Z,66.63
2024-02-17T09:15:22.381Z,65.85
2024-02-17T09:17:50.120Z,66.30
2024-02-17T09:20:18.137Z,65.70
2024-02-17T09:22:45.482Z,65.43
2024-02-17T09:25:12.887Z,67.70
2024-02-17T09:27:40.428Z,67.85
2024-02-17T09:30:09.098Z,68.72
2024-02-17T09:32:36.685Z,66.63
2024-02-17T09:35:04.689Z,67.30
2024-02-17T09:37:32.239Z,66.50
2024-02-17T09:40:01.055Z,69.25
2024-02-17T09:42:29.378Z,71.05
2024-02-17T09:44:56.854Z,68.03
2024-02-17T09:47:25.522Z,69.93
2024-02-17T09:49:54.253Z,72.10
2024-02-17T09:52:22.542Z,71.43
2024-02-17T09:54:49.981Z,71.90
2024-02-17T09:57:19.183Z,71.57
2024-02-17T09:59:46.851Z,71.28
2024-02-17T10:02:14.155Z,73.95
2024-02-17T10:05:08.352Z,72.35
2024-02-17T10:07:48.106Z,75.03
2024-02-17T10:10:18.011Z,84.72
2024-02-17T10:12:54.932Z,82.65
2024-02-17T10:15:23.712Z,87.32
2024-02-17T10:17:54.414Z,82.80
2024-02-17T10:20:22.100Z,81.45
2024-02-17T10:22:49.876Z,83.80
2024-02-17T10:25:18.818Z,83.88
2024-02-17T10:27:47.940Z,88.13
2024-02-17T10:30:21.779Z,88.30
2024-02-17T10:32:49.644Z,90.28
2024-02-17T10:35:18.027Z,86.72
2024-02-17T10:37:49.559Z,90.10
2024-02-17T10:40:17.612Z,92.22
2024-02-17T10:42:47.367Z,88.90
2024-02-17T10:45:14.962Z,95.93
2024-02-17T10:47:46.156Z,96.45
2024-02-17T10:50:17.781Z,94.78
2024-02-17T10:52:50.379Z,100.95
2024-02-17T10:55:24.065Z,100.70
2024-02-17T10:57:58.089Z,104.60
2024-02-17T11:00:26.473Z,105.68
2024-02-17T11:03:06.219Z,102.10
2024-02-17T11:05:38.028Z,105.47
2024-02-17T11:08:06.440Z,106.28
2024-02-17T11:10:34.104Z,105.18
2024-02-17T11:13:02.732Z,105.00
2024-02-17T11:15:32.871Z,103.57
2024-02-17T11:18:02.889Z,104.47
2024-02-17T11:20:30.559Z,102.85
2024-02-17T11:23:01.202Z,104.63
2024-02-17T11:25:39.994Z,104.68
2024-02-17T11:28:22.299Z,104.63
2024-02-17T11:30:51.820Z,102.40
2024-02-17T11:33:33.175Z,104.80
2024-02-17T11:36:04.909Z,106.20
2024-02-17T11:38:32.903Z,106.88
2024-02-17T11:41:01.795Z,104.88
2024-02-17T11:43:31.257Z,106.45
2024-02-17T11:45:59.411Z,105.32
2024-02-17T11:48:29.604Z,108.95
2024-02-17T11:51:10.430Z,107.80
2024-02-17T11:53:41.907Z,108.20
2024-02-17T11:56:09.592Z,109.07
2024-02-17T11:58:37.749Z,105.07
2024-02-17T12:01:05.274Z,107.03
2024-02-17T12:03:33.130Z,104.18
2024-02-17T12:06:04.220Z,99.47
2024-02-17T12:08:32.291Z,99.82
2024-02-17T12:10:59.897Z,100.78
2024-02-17T12:13:28.146Z,97.50
2024-02-17T12:16:05.261Z,96.05
2024-02-17T12:18:33.920Z,91.20
2024-02-17T12:21:02.480Z,94.88
2024-02-17T12:23:30.911Z,88.15
2024-02-17T12:25:58.859Z,88.85
2024-02-17T12:28:26.700Z,87.40
2024-02-17T12:30:54.741Z,98.57
2024-02-17T12:33:22.781Z,96.28
2024-02-17T12:35:51.656Z,97.82
2024-02-17T12:38:21.406Z,99.10
2024-02-17T12:40:49.561Z,96.68
2024-02-17T12:43:29.500Z,93.63
2024-02-17T12:46:01.842Z,92.55
2024-02-17T12:48:29.380Z,90.65
2024-02-17T12:50:57.677Z,89.20
2024-02-17T12:53:26.309Z,92.32
2024-02-17T12:55:54.899Z,91.22
2024-02-17T12:58:23.151Z,92.28
2024-02-17T13:00:50.694Z,94.60
2024-02-17T13:03:19.311Z,94.47
2024-02-17T13:05:47.066Z,88.95
2024-02-17T13:08:15.771Z,91.90
2024-02-17T13:10:43.986Z,93.35
2024-02-17T13:13:12.196Z,95.22
2024-02-17T13:15:39.683Z,93.57
2024-02-17T13:18:08.440Z,91.60
2024-02-17T13:20:35.984Z,91.55
2024-02-17T13:23:03.662Z,91.38
2024-02-17T13:25:30.984Z,92.68
2024-02-17T13:27:58.675Z,89.05
2024-02-17T13:30:26.198Z,90.75
2024-02-17T13:32:53.685Z,90.45
2024-02-17T13:35:21.515Z,87.68
2024-02-17T13:37:49.937Z,90.03
2024-02-17T13:40:20.812Z,91.38
2024-02-17T13:42:48.305Z,88.93
2024-02-17T13:45:15.832Z,86.18
2024-02-17T13:47:43.301Z,87.30
2024-02-17T13:50:13.793Z,87.25
2024-02-17T13:52:41.634Z,85.05
2024-02-17T13:55:11.248Z,82.40
2024-02-17T13:57:38.705Z,82.40
2024-02-17T14:00:06.574Z,80.88
2024-02-17T14:02:34.071Z,77.10
2024-02-17T14:05:03.989Z,79.00
2024-02-17T14:07:31.898Z,94.20
2024-02-17T14:09:59.442Z,74.75
2024-02-17T14:12:26.898Z,74.40
2024-02-17T14:14:54.228Z,73.68
2024-02-17T14:17:24.951Z,74.75
2024-02-17T14:19:52.383Z,75.85
2024-02-17T14:22:20.046Z,73.00
2024-02-17T14:24:47.497Z,86.63
2024-02-17T14:27:15.081Z,76.55
2024-02-17T14:29:47.164Z,74.57
2024-02-17T14:32:14.681Z,74.55
2024-02-17T14:34:42.578Z,70.50
2024-02-17T14:37:10.021Z,75.55
2024-02-17T14:39:38.885Z,73.15
2024-02-17T14:42:06.725Z,77.07
2024-02-17T14:44:34.116Z,73.95
2024-02-17T14:47:02.042Z,77.88
2024-02-17T14:49:29.513Z,75.18
2024-02-17T14:51:57.168Z,77.28
2024-02-17T14:54:25.017Z,73.25
2024-02-17T14:56:52.530Z,74.03
2024-02-17T14:59:19.876Z,72.07
2024-02-17T15:01:47.238Z,73.45
2024-02-17T15:04:16.312Z,73.53
2024-02-17T15:06:43.921Z,72.35
2024-02-17T15:09:11.568Z,72.70
2024-02-17T15:11:39.526Z,72.63
2024-02-17T15:14:06.923Z,70.03
2024-02-17T15:16:34.276Z,74.53
2024-02-17T15:19:01.977Z,74.85
2024-02-17T15:21:29.530Z,160.57
2024-02-17T15:23:57.055Z,85.03
2024-02-17T15:26:25.001Z,79.95
2024-02-17T15:28:52.532Z,79.60
2024-02-17T15:31:19.925Z,86.40
2024-02-17T15:33:47.628Z,85.80
2024-02-17T15:36:17.758Z,91.32
2024-02-17T15:38:46.196Z,88.05
2024-02-17T15:41:13.601Z,83.90
2024-02-17T15:43:40.918Z,88.38
2024-02-17T15:46:13.611Z,87.15
2024-02-17T15:48:41.087Z,87.35
2024-02-17T15:51:11.318Z,85.38
2024-02-17T15:53:38.952Z,88.28
2024-02-17T15:56:14.182Z,83.28
2024-02-17T15:58:41.902Z,86.30
2024-02-17T16:01:09.537Z,84.65
2024-02-17T16:03:38.079Z,88.22
2024-02-17T16:06:09.143Z,86.07
2024-02-17T16:08:38.190Z,85.45
2024-02-17T16:11:11.492Z,86.50
2024-02-17T16:13:45.694Z,92.43
2024-02-17T16:16:16.339Z,96.68
2024-02-17T16:18:46.832Z,91.32
2024-02-17T16:21:16.175Z,88.75
2024-02-17T16:23:43.687Z,89.75
2024-02-17T16:26:11.701Z,112.60
2024-02-17T16:28:39.214Z,103.55
2024-02-17T16:31:08.047Z,90.35
2024-02-17T16:33:39.054Z,92.80
2024-02-17T16:36:08.341Z,92.85
2024-02-17T16:38:36.066Z,95.70
2024-02-17T16:41:03.746Z,97.03
2024-02-17T16:43:32.628Z,93.32
2024-02-17T16:46:01.514Z,96.35
2024-02-17T16:48:30.688Z,99.90
2024-02-17T16:50:58.319Z,99.93
2024-02-17T16:53:25.734Z,106.88
2024-02-17T16:55:53.053Z,107.47
2024-02-17T16:58:20.378Z,108.22
2024-02-17T17:00:48.639Z,105.50
2024-02-17T17:03:17.542Z,103.78
2024-02-17T17:05:45.467Z,106.13
2024-02-17T17:08:12.975Z,104.25
2024-02-17T17:10:40.384Z,101.47
2024-02-17T17:13:08.763Z,103.80
2024-02-17T17:15:38.459Z,105.85
2024-02-17T17:18:06.905Z,107.32
2024-02-17T17:20:34.437Z,109.90
2024-02-17T17:23:01.908Z,122.20
2024-02-17T17:25:29.495Z,124.25
2024-02-17T17:27:57.381Z,131.70
2024-02-17T17:30:26.764Z,130.07
2024-02-17T17:32:54.565Z,108.65
2024-02-17T17:35:23.313Z,105.20
2024-02-17T17:37:50.748Z,106.30
2024-02-17T17:40:18.554Z,107.50
2024-02-17T17:42:55.813Z,108.28
2024-02-17T17:45:27.227Z,110.18
2024-02-17T17:47:55.112Z,111.80
2024-02-17T17:50:23.490Z,116.80
2024-02-17T17:52:52.748Z,116.43
2024-02-17T17:55:20.921Z,109.18
2024-02-17T17:57:48.472Z,105.68
2024-02-17T18:00:19.937Z,110.10
2024-02-17T18:02:48.369Z,121.88
2024-02-17T18:05:16.323Z,108.68
2024-02-17T18:07:44.062Z,108.30
2024-02-17T18:10:11.708Z,108.38
2024-02-17T18:12:39.283Z,104.85
2024-02-17T18:15:08.143Z,102.32
2024-02-17T18:17:37.000Z,106.07
2024-02-17T18:20:06.303Z,102.20
2024-02-17T18:22:34.141Z,104.13
2024-02-17T18:25:02.063Z,104.93
2024-02-17T18:27:29.900Z,105.38
2024-02-17T18:29:57.315Z,106.13
2024-02-17T18:32:24.905Z,104.97
2024-02-17T18:34:52.340Z,106.47
2024-02-17T18:37:20.010Z,109.68
2024-02-17T18:39:47.458Z,111.53
2024-02-17T18:42:15.029Z,107.78
2024-02-17T18:44:42.406Z,109.53
2024-02-17T18:47:09.809Z,111.70
2024-02-17T18:49:37.600Z,114.28
2024-02-17T18:52:06.346Z,115.40
2024-02-17T18:54:33.926Z,111.78
2024-02-17T18:57:01.657Z,110.88
2024-02-17T18:59:28.932Z,116.47
2024-02-17T19:01:56.379Z,117.65
2024-02-17T19:04:23.902Z,115.43
2024-02-17T19:06:51.510Z,118.07
2024-02-17T19:09:18.819Z,118.32
2024-02-17T19:11:46.383Z,122.97
2024-02-17T19:14:15.981Z,114.85
2024-02-17T19:16:43.258Z,127.93
2024-02-17T19:19:10.762Z,124.40
2024-02-17T19:21:38.474Z,115.75
2024-02-17T19:24:07.096Z,137.48
2024-02-17T19:26:35.787Z,120.00
2024-02-17T19:29:03.377Z,108.20
2024-02-17T19:31:30.665Z,110.05
2024-02-17T19:33:58.403Z,109.82
2024-02-17T19:36:25.820Z,120.75
2024-02-17T19:38:53.193Z,116.20
2024-02-17T19:41:20.614Z,122.80
2024-02-17T19:43:49.782Z,118.25
2024-02-17T19:46:17.513Z,118.15
2024-02-17T19:48:44.982Z,116.70
2024-02-17T19:51:12.764Z,117.95
2024-02-17T19:53:40.791Z,119.00
2024-02-17T19:56:08.415Z,119.03
2024-02-17T19:58:35.710Z,138.90
2024-02-17T20:01:03.170Z,140.75
2024-02-17T20:03:31.347Z,138.20
2024-02-17T20:05:59.152Z,134.40
2024-02-17T20:08:26.601Z,136.07
2024-02-17T20:10:54.157Z,133.95
2024-02-17T20:13:22.550Z,135.05
2024-02-17T20:15:52.229Z,140.57
2024-02-17T20:18:22.505Z,138.57
2024-02-17T20:20:51.356Z,121.45
2024-02-17T20:23:18.872Z,102.95
2024-02-17T20:25:46.215Z,106.47
2024-02-17T20:28:13.668Z,107.30
2024-02-17T20:30:41.377Z,122.25
2024-02-17T20:33:11.921Z,112.03
2024-02-17T20:35:39.391Z,116.63
2024-02-17T20:38:06.744Z,116.38
2024-02-17T20:40:34.064Z,114.47
2024-02-17T20:43:02.816Z,112.55
2024-02-17T20:45:30.655Z,117.13
2024-02-17T20:47:58.266Z,115.15
2024-02-17T20:50:26.257Z,118.80
2024-02-17T20:52:53.596Z,95.60
2024-02-17T20:55:22.470Z,91.05
2024-02-17T20:57:50.809Z,85.00
2024-02-17T21:00:18.608Z,82.88
2024-02-17T21:02:45.972Z,88.32
2024-02-17T21:05:13.502Z,99.20
2024-02-17T21:07:40.972Z,110.15
2024-02-17T21:10:08.752Z,107.40
2024-02-17T21:12:36.284Z,111.75
2024-02-17T21:15:05.329Z,115.65
2024-02-17T21:17:34.349Z,118.15
2024-02-17T21:20:02.017Z,118.60
2024-02-17T21:22:29.677Z,127.28
2024-02-17T21:24:57.065Z,135.50
2024-02-17T21:27:24.425Z,140.43
2024-02-17T21:29:51.793Z,140.77
2024-02-17T21:32:19.451Z,140.75
2024-02-17T21:34:48.742Z,136.40
2024-02-17T21:37:16.318Z,140.98
2024-02-17T21:39:44.613Z,128.13
2024-02-17T21:42:13.116Z,132.35
2024-02-17T21:44:40.883Z,133.68
2024-02-17T21:47:08.196Z,129.77
2024-02-17T21:49:35.638Z,89.47
2024-02-17T21:52:04.200Z,81.65
2024-02-17T21:54:31.824Z,67.00
2024-02-17T21:56:59.507Z,71.78
2024-02-17T21:59:26.989Z,76.15
2024-02-17T22:02:01.439Z,78.50
2024-02-17T22:04:32.952Z,89.53
2024-02-17T22:07:00.955Z,91.97
2024-02-17T22:09:29.231Z,86.75
2024-02-17T22:11:56.748Z,90.82
2024-02-17T22:14:24.120Z,101.05
2024-02-17T22:16:51.577Z,80.75
2024-02-17T22:19:19.114Z,95.22
2024-02-17T22:21:46.675Z,101.97
2024-02-17T22:24:14.139Z,99.57
2024-02-17T22:26:41.563Z,92.38
2024-02-17T22:29:10.233Z,91.97
2024-02-17T22:31:37.772Z,92.40
2024-02-17T22:34:06.412Z,97.40
2024-02-17T22:36:34.434Z,96.45
2024-02-17T22:39:02.189Z,92.30
2024-02-17T22:41:29.696Z,109.57
2024-02-17T22:44:00.137Z,94.60
2024-02-17T22:46:27.645Z,90.50
2024-02-17T22:48:55.145Z,96.40
2024-02-17T22:51:23.716Z,75.32
2024-02-17T22:53:51.171Z,91.70
2024-02-17T22:56:18.636Z,80.15
2024-02-17T22:58:46.092Z,78.85
2024-02-17T23:01:14.385Z,76.85
2024-02-17T23:03:42.179Z,81.78
2024-02-17T23:06:10.708Z,85.32
2024-02-17T23:08:38.313Z,104.63
2024-02-17T23:11:05.777Z,90.93
2024-02-17T23:13:33.442Z,100.93
2024-02-17T23:16:00.897Z,103.47
2024-02-17T23:18:28.922Z,106.43
2024-02-17T23:20:56.444Z,108.50
2024-02-17T23:23:25.953Z,105.07
2024-02-17T23:25:53.273Z,115.63
2024-02-17T23:28:20.604Z,110.45
2024-02-17T23:30:48.121Z,95.30
2024-02-17T23:33:15.545Z,66.72
2024-02-17T23:35:43.266Z,75.65
2024-02-17T23:38:10.717Z,86.30
2024-02-17T23:40:38.155Z,87.60
2024-02-17T23:43:05.519Z,90.72
2024-02-17T23:45:35.122Z,90.05
2024-02-17T23:48:03.657Z,95.40
2024-02-17T23:50:32.563Z,99.53
2024-02-17T23:52:59.998Z,95.85
2024-02-17T23:55:27.413Z,93.60
2024-02-17T23:57:54.931Z,96.43
